Time;durP1;ratioP1;P1;durP2;ratioP2;P2;SDS_P1;SDS_P2;PMS_P1;PMS_P2;Temp;Humidity;BMP_temperature;BMP_pressure;BME280_temperature;BME280_humidity;BME280_pressure;Samples;Min_cycle;Max_cycle;Signal;HPM_P1;HPM_P2
2022/03/11 00:02:04;;;;;;;15.68;9.02;;;9.30;85.20;;;;;;5039854;28;20403;-75
2022/03/11 00:04:30;;;;;;;16.63;9.43;;;9.20;85.50;;;;;;5037354;28;20033;-75
2022/03/11 00:06:56;;;;;;;17.67;10.75;;;9.30;85.80;;;;;;5036058;28;20029;-74
2022/03/11 00:09:22;;;;;;;17.05;9.35;;;9.30;85.70;;;;;;5037354;28;20051;-74
2022/03/11 00:11:48;;;;;;;14.82;8.93;;;9.30;85.70;;;;;;5041970;28;20013;-74
2022/03/11 00:14:14;;;;;;;15.65;9.07;;;9.20;85.40;;;;;;5057558;28;20181;-74
2022/03/11 00:16:39;;;;;;;17.08;9.57;;;9.30;85.60;;;;;;5055784;28;20017;-74
2022/03/11 00:19:05;;;;;;;18.73;10.93;;;9.30;85.50;;;;;;5056335;28;20025;-74
2022/03/11 00:21:31;;;;;;;19.75;10.90;;;9.30;85.60;;;;;;5036219;28;20022;-75
2022/03/11 00:23:56;;;;;;;18.42;10.68;;;9.40;85.30;;;;;;5057276;28;20021;-74
2022/03/11 00:26:22;;;;;;;19.80;11.73;;;9.40;85.00;;;;;;5048066;28;20021;-75
2022/03/11 00:28:47;;;;;;;18.42;10.55;;;9.40;85.20;;;;;;5036587;28;20036;-75
2022/03/11 00:31:13;;;;;;;16.75;9.73;;;9.30;85.40;;;;;;5041400;28;20025;-75
2022/03/11 00:33:39;;;;;;;19.20;11.13;;;9.30;85.30;;;;;;5035666;28;20040;-75
2022/03/11 00:36:05;;;;;;;19.25;11.98;;;9.20;85.50;;;;;;5036852;28;20082;-75
2022/03/11 00:38:30;;;;;;;19.13;10.32;;;9.20;85.50;;;;;;5035409;28;20384;-75
2022/03/11 00:40:56;;;;;;;19.73;11.32;;;9.20;85.80;;;;;;5036627;28;20026;-74
2022/03/11 00:43:28;;;;;;;21.27;11.15;;;9.20;85.90;;;;;;5038676;28;20029;-74
2022/03/11 00:45:54;;;;;;;12.98;8.68;;;9.20;85.80;;;;;;5055358;28;20144;-74
2022/03/11 00:48:21;;;;;;;18.08;10.40;;;9.10;85.70;;;;;;5055252;28;20058;-74
2022/03/11 00:50:47;;;;;;;21.55;11.95;;;9.10;85.80;;;;;;5055054;28;20029;-74
2022/03/11 00:53:14;;;;;;;15.68;8.95;;;9.10;85.50;;;;;;5041136;28;20033;-75
2022/03/11 00:55:40;;;;;;;17.08;9.95;;;9.10;85.50;;;;;;5035082;28;20036;-75
2022/03/11 00:58:05;;;;;;;18.92;10.48;;;9.10;85.30;;;;;;5034901;28;20153;-74
2022/03/11 01:00:32;;;;;;;18.30;10.32;;;9.10;85.40;;;;;;5036295;28;20010;-74
2022/03/11 01:02:57;;;;;;;18.17;9.52;;;9.10;85.20;;;;;;5034160;28;20034;-74
2022/03/11 01:05:23;;;;;;;14.18;8.85;;;9.10;85.20;;;;;;5035083;28;20025;-74
2022/03/11 01:07:49;;;;;;;18.45;9.02;;;9.10;84.90;;;;;;5036421;28;20040;-74
2022/03/11 01:10:15;;;;;;;17.17;10.68;;;9.10;84.90;;;;;;5036196;28;20025;-74
2022/03/11 01:12:42;;;;;;;19.25;9.68;;;9.20;85.00;;;;;;5034928;28;20017;-74
2022/03/11 01:15:08;;;;;;;17.83;10.57;;;9.20;84.80;;;;;;5036553;28;20021;-75
2022/03/11 01:17:34;;;;;;;18.90;11.75;;;9.20;84.80;;;;;;5034713;28;20083;-74
2022/03/11 01:20:00;;;;;;;16.60;9.05;;;9.20;84.60;;;;;;5034705;28;20064;-75
2022/03/11 01:22:25;;;;;;;14.27;8.60;;;9.10;84.50;;;;;;5034424;28;20029;-75
2022/03/11 01:24:51;;;;;;;15.18;9.82;;;9.10;84.60;;;;;;5071159;28;20028;-75
2022/03/11 01:27:17;;;;;;;14.70;9.30;;;9.20;84.50;;;;;;5075958;28;20509;-74
2022/03/11 01:29:42;;;;;;;15.00;8.32;;;9.10;84.50;;;;;;5074459;28;20029;-74
2022/03/11 01:32:08;;;;;;;12.82;8.40;;;9.10;84.40;;;;;;5055734;28;20495;-74
2022/03/11 01:34:35;;;;;;;15.88;8.93;;;9.10;84.30;;;;;;5054524;28;20499;-75
2022/03/11 01:37:00;;;;;;;11.82;7.28;;;9.20;84.30;;;;;;5055821;28;20044;-75
2022/03/11 01:39:26;;;;;;;13.95;8.82;;;9.20;84.00;;;;;;5040434;28;20021;-74
2022/03/11 01:41:52;;;;;;;15.05;8.63;;;9.20;84.10;;;;;;5034365;28;20026;-75
2022/03/11 01:44:18;;;;;;;14.18;8.25;;;9.20;83.90;;;;;;5035761;28;20064;-75
2022/03/11 01:46:43;;;;;;;12.93;7.13;;;9.30;83.90;;;;;;5035631;28;20125;-74
2022/03/11 01:49:10;;;;;;;11.15;6.38;;;9.20;83.80;;;;;;5035546;28;20035;-75
2022/03/11 01:51:41;;;;;;;13.32;7.38;;;9.20;83.90;;;;;;5035720;28;20121;-75
2022/03/11 01:54:07;;;;;;;11.98;7.35;;;9.20;84.00;;;;;;5035470;28;20515;-75
2022/03/11 01:56:34;;;;;;;9.25;6.55;;;9.20;83.90;;;;;;5040430;28;20084;-75
2022/03/11 01:59:00;;;;;;;10.90;6.25;;;9.30;83.80;;;;;;5054243;28;20032;-75
2022/03/11 02:01:26;;;;;;;11.32;7.07;;;9.30;83.70;;;;;;5055561;28;20391;-75
2022/03/11 02:03:52;;;;;;;11.85;6.72;;;9.30;83.80;;;;;;5055430;28;20017;-75
2022/03/11 02:06:19;;;;;;;10.38;6.35;;;9.40;83.70;;;;;;5040158;28;20040;-75
2022/03/11 02:08:45;;;;;;;11.95;7.15;;;9.40;83.70;;;;;;5034111;28;20108;-75
2022/03/11 02:11:11;;;;;;;13.65;7.13;;;9.40;83.80;;;;;;5034020;28;20029;-75
2022/03/11 02:13:51;;;;;;;10.43;6.20;;;9.50;83.50;;;;;;5036160;28;20029;-75
2022/03/11 02:16:19;;;;;;;11.20;6.40;;;9.50;83.20;;;;;;5039481;28;20075;-74
2022/03/11 02:18:45;;;;;;;11.27;6.55;;;9.50;83.40;;;;;;5039055;28;20314;-75
2022/03/11 02:21:12;;;;;;;11.90;6.07;;;9.60;83.50;;;;;;5059335;28;20063;-75
2022/03/11 02:23:45;;;;;;;10.95;7.13;;;9.60;83.40;;;;;;5065487;28;20490;-75
2022/03/11 02:26:11;;;;;;;12.65;6.55;;;9.70;83.30;;;;;;5044245;28;20048;-75
2022/03/11 02:28:37;;;;;;;11.50;6.70;;;9.70;83.20;;;;;;5039416;28;20087;-74
2022/03/11 02:31:02;;;;;;;11.07;6.32;;;9.70;83.20;;;;;;5038087;28;20037;-74
2022/03/11 02:33:28;;;;;;;11.68;6.85;;;9.70;83.20;;;;;;5039112;28;20049;-75
2022/03/11 02:35:54;;;;;;;10.40;6.63;;;9.80;83.40;;;;;;5039183;28;20064;-75
2022/03/11 02:38:20;;;;;;;10.95;6.63;;;9.80;83.30;;;;;;5037812;28;20021;-75
2022/03/11 02:40:46;;;;;;;13.35;7.57;;;9.80;83.50;;;;;;5039013;28;20052;-75
2022/03/11 02:43:12;;;;;;;9.70;6.70;;;9.80;83.30;;;;;;5052031;28;20021;-75
2022/03/11 02:45:38;;;;;;;11.30;6.35;;;9.90;83.40;;;;;;5056656;28;20025;-74
2022/03/11 02:48:05;;;;;;;9.95;6.50;;;9.80;83.50;;;;;;5037714;28;20394;-75
2022/03/11 02:50:31;;;;;;;9.57;6.38;;;9.80;83.50;;;;;;5039053;28;20558;-74
2022/03/11 02:52:57;;;;;;;10.10;6.57;;;9.80;83.80;;;;;;5038793;28;20577;-75
2022/03/11 02:55:22;;;;;;;9.98;6.90;;;9.80;83.80;;;;;;5037339;28;20031;-75
2022/03/11 02:57:48;;;;;;;12.43;7.20;;;9.80;84.00;;;;;;5038540;28;20076;-75
2022/03/11 03:00:14;;;;;;;14.25;7.88;;;9.80;84.20;;;;;;5037269;28;20042;-75
2022/03/11 03:02:39;;;;;;;9.27;6.82;;;9.90;84.40;;;;;;5038512;28;20026;-75
2022/03/11 03:05:06;;;;;;;13.23;7.50;;;9.80;84.40;;;;;;5038531;28;20026;-75
2022/03/11 03:07:31;;;;;;;13.07;7.13;;;9.80;84.40;;;;;;5038560;28;20488;-74
2022/03/11 03:09:58;;;;;;;11.50;6.50;;;9.80;84.70;;;;;;5037116;28;20179;-74
2022/03/11 03:12:25;;;;;;;13.15;7.28;;;9.80;84.90;;;;;;5038423;28;20029;-74
2022/03/11 03:14:51;;;;;;;13.88;7.65;;;9.80;85.50;;;;;;5038423;28;20030;-75
2022/03/11 03:17:21;;;;;;;11.60;8.20;;;9.80;85.10;;;;;;5038090;28;20033;-75
2022/03/11 03:19:47;;;;;;;13.18;7.70;;;9.80;85.30;;;;;;5039456;28;20050;-74
2022/03/11 03:22:14;;;;;;;14.00;7.70;;;9.80;85.50;;;;;;5058302;28;20029;-75
2022/03/11 03:24:40;;;;;;;15.30;8.25;;;9.80;85.60;;;;;;5058398;28;20041;-74
2022/03/11 03:27:05;;;;;;;14.48;8.52;;;9.70;86.20;;;;;;5056281;28;20124;-75
2022/03/11 03:29:32;;;;;;;14.70;7.68;;;9.70;86.80;;;;;;5058266;28;20360;-75
2022/03/11 03:31:58;;;;;;;15.73;8.50;;;9.70;87.30;;;;;;5047811;28;20033;-75
2022/03/11 03:34:31;;;;;;;15.68;9.18;;;9.60;87.40;;;;;;5038110;28;20618;-75
2022/03/11 03:36:58;;;;;;;15.48;8.02;;;9.60;87.60;;;;;;5036919;28;20025;-75
2022/03/11 03:39:24;;;;;;;16.77;9.68;;;9.60;87.00;;;;;;5037645;28;20041;-75
2022/03/11 03:41:51;;;;;;;19.67;9.07;;;9.60;87.10;;;;;;5037840;28;20014;-74
2022/03/11 03:44:16;;;;;;;16.05;8.48;;;9.70;87.10;;;;;;5037849;28;20587;-75
2022/03/11 03:46:42;;;;;;;17.45;11.05;;;9.70;86.90;;;;;;5036679;28;20053;-75
2022/03/11 03:49:08;;;;;;;19.27;9.88;;;9.70;86.70;;;;;;5037794;28;20451;-75
2022/03/11 03:51:34;;;;;;;20.10;11.55;;;9.70;86.70;;;;;;5037789;28;20029;-75
2022/03/11 03:54:00;;;;;;;18.05;10.73;;;9.60;86.80;;;;;;5037707;28;20028;-74
2022/03/11 03:56:25;;;;;;;13.07;8.65;;;9.70;86.80;;;;;;5036194;28;20112;-75
2022/03/11 03:58:51;;;;;;;20.00;10.75;;;9.70;86.60;;;;;;5036268;28;20036;-74
2022/03/11 04:01:17;;;;;;;18.90;9.93;;;9.60;86.80;;;;;;5037493;28;20021;-75
2022/03/11 04:03:43;;;;;;;19.08;9.68;;;9.60;86.90;;;;;;5052661;28;20105;-75
2022/03/11 04:06:08;;;;;;;21.98;11.40;;;9.60;86.90;;;;;;5037547;28;20047;-75
2022/03/11 04:08:34;;;;;;;20.55;11.48;;;9.50;87.10;;;;;;5037471;28;20100;-75
2022/03/11 04:11:00;;;;;;;21.67;11.45;;;9.70;87.10;;;;;;5037164;28;20503;-75
2022/03/11 04:13:26;;;;;;;18.95;11.10;;;9.60;86.90;;;;;;5037342;28;20065;-75
2022/03/11 04:15:51;;;;;;;17.00;10.55;;;9.60;87.10;;;;;;5037245;28;20029;-74
2022/03/11 04:18:17;;;;;;;21.35;11.10;;;9.60;87.30;;;;;;5035835;28;20120;-75
2022/03/11 04:20:43;;;;;;;16.75;11.05;;;9.70;87.20;;;;;;5035877;28;20027;-75
2022/03/11 04:23:09;;;;;;;19.60;11.50;;;9.60;87.20;;;;;;5042814;28;20016;-74
2022/03/11 04:25:34;;;;;;;18.50;10.70;;;9.70;87.10;;;;;;5037738;28;20068;-75
2022/03/11 04:28:00;;;;;;;18.17;10.40;;;9.70;87.00;;;;;;5037062;28;20099;-75
2022/03/11 04:30:26;;;;;;;22.15;11.70;;;9.70;86.90;;;;;;5035408;28;20061;-74
2022/03/11 04:32:51;;;;;;;18.20;10.80;;;9.70;87.20;;;;;;5037063;28;20068;-75
2022/03/11 04:35:17;;;;;;;16.88;10.10;;;9.70;87.30;;;;;;5049109;28;20056;-75
2022/03/11 04:37:43;;;;;;;18.33;10.35;;;9.70;87.20;;;;;;5035854;28;20112;-75
2022/03/11 04:40:09;;;;;;;19.58;10.90;;;9.70;87.00;;;;;;5036753;28;20039;-75
2022/03/11 04:42:36;;;;;;;16.95;8.65;;;9.70;87.00;;;;;;5035352;28;20045;-75
2022/03/11 04:45:03;;;;;;;18.42;11.23;;;9.80;86.80;;;;;;5036783;28;20515;-75
2022/03/11 04:47:28;;;;;;;18.05;11.40;;;9.80;86.80;;;;;;5036567;28;20032;-75
2022/03/11 04:49:54;;;;;;;15.15;9.43;;;9.80;86.70;;;;;;5042416;28;20514;-75
2022/03/11 04:52:20;;;;;;;20.45;11.20;;;9.70;86.80;;;;;;5056466;28;20025;-75
2022/03/11 04:54:45;;;;;;;17.92;10.80;;;9.80;86.80;;;;;;5056560;28;20060;-75
2022/03/11 04:57:11;;;;;;;16.70;9.75;;;9.90;86.30;;;;;;5046854;28;20046;-74
2022/03/11 04:59:37;;;;;;;14.00;9.32;;;10.00;86.00;;;;;;5036533;28;20033;-75
2022/03/11 05:02:03;;;;;;;17.67;8.52;;;10.00;85.80;;;;;;5035107;28;20108;-74
2022/03/11 05:04:28;;;;;;;17.52;9.38;;;10.10;85.50;;;;;;5036273;28;20032;-74
2022/03/11 05:06:54;;;;;;;15.82;10.35;;;10.20;85.50;;;;;;5034848;28;20041;-75
2022/03/11 05:09:19;;;;;;;16.08;8.60;;;10.20;85.20;;;;;;5036312;28;20032;-75
2022/03/11 05:11:45;;;;;;;12.70;7.50;;;10.20;85.10;;;;;;5036013;28;20115;-75
2022/03/11 05:14:11;;;;;;;14.10;8.48;;;10.20;85.00;;;;;;5036258;28;20462;-75
2022/03/11 05:16:37;;;;;;;12.95;7.97;;;10.20;85.10;;;;;;5036118;28;20025;-75
2022/03/11 05:19:03;;;;;;;11.70;7.05;;;10.20;85.00;;;;;;5036049;28;20036;-75
2022/03/11 05:21:29;;;;;;;14.88;9.32;;;10.10;85.20;;;;;;5035949;28;20077;-75
2022/03/11 05:23:54;;;;;;;14.15;7.72;;;10.20;85.20;;;;;;5055814;28;20405;-75
2022/03/11 05:26:27;;;;;;;10.40;7.35;;;10.20;85.30;;;;;;5056760;28;20113;-75
2022/03/11 05:28:59;;;;;;;13.15;8.05;;;10.20;84.90;;;;;;5054576;28;20040;-75
2022/03/11 05:31:26;;;;;;;11.60;7.63;;;10.20;84.80;;;;;;5055202;28;20024;-75
2022/03/11 05:33:54;;;;;;;12.07;7.57;;;10.20;84.90;;;;;;5055976;28;20036;-74
2022/03/11 05:36:20;;;;;;;12.57;8.30;;;10.30;84.70;;;;;;5054418;28;20036;-75
2022/03/11 05:38:46;;;;;;;11.82;7.25;;;10.30;84.90;;;;;;5043026;28;20403;-75
2022/03/11 05:41:11;;;;;;;10.10;8.15;;;10.20;84.80;;;;;;5035976;28;20017;-75
2022/03/11 05:43:37;;;;;;;12.90;8.25;;;10.20;84.70;;;;;;5034387;28;20415;-75
2022/03/11 05:46:04;;;;;;;12.55;7.80;;;10.20;84.70;;;;;;5040472;28;20074;-75
2022/03/11 05:48:30;;;;;;;12.35;7.43;;;10.20;84.80;;;;;;5033758;28;20118;-74
2022/03/11 05:50:55;;;;;;;12.63;6.78;;;10.20;84.80;;;;;;5035825;28;20087;-76
2022/03/11 05:53:21;;;;;;;10.60;7.30;;;10.20;84.90;;;;;;5034087;28;20029;-75
2022/03/11 05:55:47;;;;;;;14.13;8.40;;;10.20;84.80;;;;;;5034258;28;20026;-78
2022/03/11 05:58:13;;;;;;;14.70;7.80;;;10.30;84.80;;;;;;5033827;28;20076;-76
2022/03/11 06:00:39;;;;;;;14.13;8.30;;;10.30;84.50;;;;;;5038454;28;20053;-75
2022/03/11 06:03:06;;;;;;;12.27;7.93;;;10.30;84.50;;;;;;5047923;28;20010;-75
2022/03/11 06:05:32;;;;;;;15.32;8.48;;;10.30;84.50;;;;;;5042762;28;20037;-76
2022/03/11 06:07:57;;;;;;;12.60;7.93;;;10.30;84.50;;;;;;5038796;28;20034;-75
2022/03/11 06:10:23;;;;;;;12.95;8.20;;;10.30;84.50;;;;;;5037634;28;20066;-77
2022/03/11 06:12:49;;;;;;;11.60;8.23;;;10.30;84.50;;;;;;5039828;28;20124;-75
2022/03/11 06:15:15;;;;;;;12.90;8.07;;;10.30;84.70;;;;;;5042190;28;20068;-76
2022/03/11 06:17:41;;;;;;;10.80;7.43;;;10.30;84.50;;;;;;5032627;28;20033;-76
2022/03/11 06:20:08;;;;;;;10.23;6.93;;;10.30;84.50;;;;;;5041568;28;20025;-74
2022/03/11 06:22:36;;;;;;;10.93;6.90;;;10.40;84.40;;;;;;5051167;28;20022;-73
2022/03/11 06:25:03;;;;;;;7.93;5.63;;;10.30;84.40;;;;;;5037430;28;20029;-76
2022/03/11 06:27:29;;;;;;;13.82;8.82;;;10.40;84.30;;;;;;5050731;28;20029;-73
2022/03/11 06:29:54;;;;;;;10.57;7.07;;;10.40;84.40;;;;;;5040273;28;20045;-73
2022/03/11 06:32:20;;;;;;;13.13;7.13;;;10.50;84.30;;;;;;5036296;28;20088;-74
2022/03/11 06:34:48;;;;;;;13.52;7.45;;;10.50;84.20;;;;;;5034716;28;20085;-73
2022/03/11 06:37:14;;;;;;;10.90;7.07;;;10.50;84.20;;;;;;5037470;28;20439;-73
2022/03/11 06:39:40;;;;;;;9.02;6.65;;;10.50;84.30;;;;;;5036655;28;20045;-75
2022/03/11 06:42:06;;;;;;;12.43;7.97;;;10.50;84.70;;;;;;5040215;28;20025;-75
2022/03/11 06:44:32;;;;;;;9.88;6.63;;;10.50;85.20;;;;;;5044981;28;20495;-75
2022/03/11 06:46:58;;;;;;;9.98;6.95;;;10.50;85.30;;;;;;5036895;28;20056;-75
2022/03/11 06:49:24;;;;;;;13.18;7.03;;;10.50;85.40;;;;;;5035240;28;20207;-75
2022/03/11 06:51:50;;;;;;;12.10;7.50;;;10.50;85.50;;;;;;5041694;28;20022;-75
2022/03/11 06:54:15;;;;;;;11.55;7.70;;;10.50;85.30;;;;;;5034792;28;20041;-75
2022/03/11 06:56:41;;;;;;;10.77;6.45;;;10.50;85.20;;;;;;5032848;28;20049;-75
2022/03/11 06:59:07;;;;;;;10.55;7.38;;;10.50;85.40;;;;;;5032924;28;20025;-75
2022/03/11 07:01:33;;;;;;;11.68;7.00;;;10.50;85.40;;;;;;5035508;28;20017;-74
2022/03/11 07:04:00;;;;;;;14.27;7.43;;;10.50;85.30;;;;;;5035776;28;20021;-75
2022/03/11 07:06:26;;;;;;;11.80;7.65;;;10.60;85.20;;;;;;5036918;28;20025;-74
2022/03/11 07:08:52;;;;;;;9.82;6.53;;;10.60;85.00;;;;;;5040974;28;20619;-75
2022/03/11 07:11:18;;;;;;;11.27;7.50;;;10.60;84.80;;;;;;5043247;28;20038;-75
2022/03/11 07:13:44;;;;;;;10.68;7.10;;;10.70;84.80;;;;;;5056162;28;20033;-75
2022/03/11 07:16:10;;;;;;;8.25;5.90;;;10.70;84.80;;;;;;5055662;28;20403;-75
2022/03/11 07:18:36;;;;;;;9.80;6.32;;;10.70;84.80;;;;;;5057530;28;20049;-75
2022/03/11 07:21:02;;;;;;;9.35;6.22;;;10.70;84.90;;;;;;5052476;28;20022;-75
2022/03/11 07:23:28;;;;;;;10.25;6.00;;;10.70;84.60;;;;;;5050491;28;20023;-75
2022/03/11 07:25:54;;;;;;;10.40;6.15;;;10.70;84.70;;;;;;5064250;28;20040;-75
2022/03/11 07:28:20;;;;;;;8.40;5.28;;;10.80;84.60;;;;;;5037572;28;20113;-75
2022/03/11 07:30:46;;;;;;;14.88;6.53;;;10.70;84.30;;;;;;5040551;28;20061;-75
2022/03/11 07:33:12;;;;;;;8.95;6.50;;;10.70;84.50;;;;;;5038021;28;20645;-75
2022/03/11 07:35:38;;;;;;;9.07;5.43;;;10.80;84.60;;;;;;5036598;28;20051;-75
2022/03/11 07:38:04;;;;;;;10.23;6.68;;;10.70;84.50;;;;;;5037696;28;20116;-75
2022/03/11 07:40:30;;;;;;;12.10;6.93;;;10.70;84.50;;;;;;5044569;28;20060;-75
2022/03/11 07:42:55;;;;;;;9.50;6.93;;;10.80;84.60;;;;;;5057081;28;20013;-74
2022/03/11 07:45:21;;;;;;;11.88;7.25;;;10.80;84.80;;;;;;5026512;28;20025;-74
2022/03/11 07:47:47;;;;;;;11.13;6.80;;;10.70;85.00;;;;;;5056325;28;20498;-74
2022/03/11 07:50:13;;;;;;;10.85;6.63;;;10.80;85.20;;;;;;5056414;28;20060;-74
2022/03/11 07:52:40;;;;;;;10.27;6.78;;;10.80;85.60;;;;;;5055403;28;20089;-74
2022/03/11 07:55:08;;;;;;;9.73;6.07;;;10.80;85.40;;;;;;5048209;28;20036;-74
2022/03/11 07:57:36;;;;;;;7.40;5.35;;;10.80;85.40;;;;;;5057533;28;20049;-74
2022/03/11 08:00:04;;;;;;;9.30;5.95;;;10.80;85.70;;;;;;5038547;28;20044;-75
2022/03/11 08:02:30;;;;;;;9.80;5.82;;;10.80;86.00;;;;;;5037513;28;20037;-74
2022/03/11 08:04:57;;;;;;;12.20;7.20;;;10.80;86.10;;;;;;5035887;28;20091;-75
2022/03/11 08:07:23;;;;;;;10.52;6.32;;;10.80;86.00;;;;;;5037396;28;20030;-75
2022/03/11 08:09:49;;;;;;;10.02;6.55;;;10.70;85.90;;;;;;5037239;28;20021;-75
2022/03/11 08:12:14;;;;;;;12.88;6.63;;;10.80;86.20;;;;;;5045742;28;20021;-75
2022/03/11 08:14:40;;;;;;;7.47;5.85;;;10.80;86.60;;;;;;5036877;28;20096;-74
2022/03/11 08:17:06;;;;;;;10.13;5.07;;;10.80;86.50;;;;;;5051501;28;20029;-74
2022/03/11 08:19:32;;;;;;;8.98;5.97;;;10.80;86.50;;;;;;5055645;28;20029;-74
2022/03/11 08:21:58;;;;;;;10.75;7.07;;;10.80;86.50;;;;;;5042043;28;20031;-75
2022/03/11 08:24:24;;;;;;;7.40;5.38;;;10.80;87.20;;;;;;5064549;28;20029;-75
2022/03/11 08:26:50;;;;;;;11.00;6.15;;;10.80;87.00;;;;;;5076710;28;20044;-74
2022/03/11 08:29:16;;;;;;;9.35;6.72;;;10.80;87.20;;;;;;5075513;28;20028;-75
2022/03/11 08:31:43;;;;;;;10.52;6.72;;;10.80;87.30;;;;;;5059125;28;20082;-74
2022/03/11 08:34:09;;;;;;;13.63;7.38;;;10.80;87.20;;;;;;5057022;28;20064;-75
2022/03/11 08:36:35;;;;;;;8.65;6.20;;;10.80;87.20;;;;;;5054410;28;20059;-75
2022/03/11 08:39:01;;;;;;;11.13;7.18;;;10.80;87.30;;;;;;5035731;28;20038;-75
2022/03/11 08:41:27;;;;;;;9.48;6.25;;;10.90;87.40;;;;;;5036640;28;20053;-74
2022/03/11 08:43:53;;;;;;;10.10;6.45;;;10.90;87.30;;;;;;5051023;28;20040;-75
2022/03/11 08:46:19;;;;;;;10.55;6.95;;;10.90;87.20;;;;;;5054694;28;20029;-75
2022/03/11 08:48:44;;;;;;;10.77;6.25;;;10.90;87.20;;;;;;5048893;28;20033;-75
2022/03/11 08:51:11;;;;;;;10.60;7.32;;;10.90;87.30;;;;;;5036506;28;20018;-75
2022/03/11 08:53:36;;;;;;;14.65;6.88;;;10.90;87.10;;;;;;5035069;28;20034;-75
2022/03/11 08:56:03;;;;;;;9.65;6.13;;;11.00;87.30;;;;;;5037233;28;20025;-75
2022/03/11 08:58:29;;;;;;;10.23;6.63;;;10.90;87.10;;;;;;5056004;28;20124;-75
2022/03/11 09:00:55;;;;;;;7.20;4.38;;;11.00;87.20;;;;;;5038422;28;20519;-75
2022/03/11 09:03:21;;;;;;;10.52;7.20;;;11.00;87.10;;;;;;5034727;28;20040;-75
2022/03/11 09:05:47;;;;;;;15.52;5.95;;;11.10;87.10;;;;;;5034088;28;20022;-75
2022/03/11 09:08:13;;;;;;;9.27;5.45;;;11.10;87.20;;;;;;5040559;28;20380;-75
2022/03/11 09:10:38;;;;;;;9.52;6.57;;;11.10;87.20;;;;;;5053801;28;20021;-75
2022/03/11 09:13:04;;;;;;;11.32;6.40;;;11.10;87.30;;;;;;5036306;28;20025;-75
2022/03/11 09:15:30;;;;;;;9.15;6.13;;;11.10;87.40;;;;;;5035812;28;20650;-75
2022/03/11 09:17:56;;;;;;;11.18;6.95;;;11.00;87.60;;;;;;5034720;28;20038;-75
2022/03/11 09:20:23;;;;;;;8.95;6.03;;;11.10;87.80;;;;;;5035910;28;20047;-75
2022/03/11 09:22:48;;;;;;;17.20;7.40;;;10.90;88.10;;;;;;5036120;28;20048;-75
2022/03/11 09:25:16;;;;;;;14.93;7.38;;;11.00;88.60;;;;;;5072043;28;20021;-75
2022/03/11 09:27:42;;;;;;;11.43;7.90;;;11.00;88.40;;;;;;5055737;28;20025;-75
2022/03/11 09:30:08;;;;;;;11.70;6.60;;;10.90;88.60;;;;;;5055667;28;20017;-74
2022/03/11 09:32:34;;;;;;;12.57;6.85;;;10.90;88.60;;;;;;5055726;28;20035;-75
2022/03/11 09:35:00;;;;;;;11.30;7.20;;;11.00;88.60;;;;;;5052378;28;20550;-75
2022/03/11 09:37:27;;;;;;;12.95;7.78;;;11.00;88.50;;;;;;5035454;28;20033;-74
2022/03/11 09:39:53;;;;;;;11.82;7.97;;;11.10;88.70;;;;;;5035930;28;20036;-74
2022/03/11 09:42:19;;;;;;;11.63;6.82;;;11.00;88.40;;;;;;5034321;28;20500;-74
2022/03/11 09:44:53;;;;;;;11.38;6.00;;;11.20;88.60;;;;;;5035472;28;20030;-75
2022/03/11 09:47:20;;;;;;;9.90;5.65;;;11.20;88.50;;;;;;5035349;28;20021;-75
2022/03/11 09:49:50;;;;;;;10.93;6.75;;;11.00;88.60;;;;;;5034279;28;20025;-75
2022/03/11 09:52:17;;;;;;;12.68;7.20;;;11.00;89.10;;;;;;5035354;28;20032;-75
2022/03/11 09:54:46;;;;;;;9.02;6.22;;;11.10;89.30;;;;;;5035444;28;20044;-75
2022/03/11 09:57:26;;;;;;;8.25;5.97;;;11.10;89.30;;;;;;5035216;28;20053;-75
2022/03/11 09:59:51;;;;;;;10.15;6.60;;;11.10;89.20;;;;;;5035484;28;20041;-74
2022/03/11 10:02:18;;;;;;;8.43;5.05;;;11.20;88.70;;;;;;5034058;28;20029;-75
2022/03/11 10:04:51;;;;;;;8.60;5.60;;;11.20;88.60;;;;;;5043231;28;20025;-75
2022/03/11 10:07:28;;;;;;;10.20;5.57;;;11.20;88.70;;;;;;5055094;28;20147;-74
2022/03/11 10:09:55;;;;;;;10.52;5.38;;;11.30;88.20;;;;;;5055084;28;20047;-74
2022/03/11 10:12:26;;;;;;;6.75;4.50;;;11.50;88.30;;;;;;5038965;28;20022;-75
2022/03/11 10:15:01;;;;;;;7.45;4.68;;;11.50;88.20;;;;;;5033902;28;20037;-75
2022/03/11 10:17:35;;;;;;;9.13;3.97;;;11.70;87.50;;;;;;5033761;28;20017;-74
2022/03/11 10:20:11;;;;;;;5.18;3.65;;;11.80;87.40;;;;;;5046389;28;20029;-74
2022/03/11 10:22:39;;;;;;;5.78;2.97;;;11.80;87.00;;;;;;5055181;28;20017;-74
2022/03/11 10:25:13;;;;;;;3.80;1.75;;;11.80;86.90;;;;;;5071431;28;20048;-75
2022/03/11 10:28:03;;;;;;;5.20;2.45;;;11.90;86.00;;;;;;5053674;28;20047;-75
2022/03/11 10:30:34;;;;;;;6.13;2.10;;;11.90;85.80;;;;;;5055069;28;20033;-75
2022/03/11 10:33:02;;;;;;;6.72;2.03;;;11.90;86.00;;;;;;5038150;28;20037;-75
2022/03/11 10:35:31;;;;;;;5.03;2.50;;;11.90;86.50;;;;;;5037054;28;20072;-75
2022/03/11 10:38:17;;;;;;;3.55;1.80;;;11.80;85.60;;;;;;5038875;28;20452;-75
2022/03/11 10:40:49;;;;;;;5.88;2.65;;;11.80;86.20;;;;;;5038784;28;20468;-75
2022/03/11 10:43:16;;;;;;;3.83;1.55;;;11.90;86.20;;;;;;5039069;28;20056;-75
2022/03/11 10:45:50;;;;;;;8.43;2.08;;;11.80;86.10;;;;;;5038937;28;20519;-74
2022/03/11 10:48:18;;;;;;;7.63;2.38;;;11.90;86.00;;;;;;5038633;28;20079;-75
2022/03/11 10:50:44;;;;;;;3.97;2.03;;;12.00;86.30;;;;;;5054031;28;20036;-75
2022/03/11 10:53:11;;;;;;;6.03;2.13;;;12.10;86.10;;;;;;5058705;28;20086;-75
2022/03/11 10:55:41;;;;;;;4.70;1.83;;;12.20;85.60;;;;;;5058458;28;20046;-75
2022/03/11 10:58:08;;;;;;;4.57;1.60;;;12.30;86.20;;;;;;5053877;28;20515;-75
2022/03/11 11:00:36;;;;;;;5.00;1.70;;;12.30;85.60;;;;;;5038771;28;20104;-74
2022/03/11 11:03:06;;;;;;;2.72;1.20;;;12.50;85.10;;;;;;5038533;28;20032;-74
2022/03/11 11:05:32;;;;;;;3.38;1.42;;;12.70;84.40;;;;;;5038383;28;20025;-75
2022/03/11 11:08:00;;;;;;;3.85;1.67;;;12.70;83.50;;;;;;5042992;28;20025;-74
2022/03/11 11:10:28;;;;;;;3.47;0.90;;;12.80;84.00;;;;;;5058047;28;20128;-75
2022/03/11 11:12:54;;;;;;;2.70;1.00;;;12.80;84.80;;;;;;5038389;28;20072;-74
2022/03/11 11:15:21;;;;;;;2.92;0.80;;;12.60;83.40;;;;;;5037958;28;20025;-74
2022/03/11 11:17:51;;;;;;;4.03;1.88;;;12.50;83.90;;;;;;5057632;28;20021;-75
2022/03/11 11:20:20;;;;;;;1.20;0.55;;;12.40;84.70;;;;;;5057933;28;20444;-75
2022/03/11 11:22:47;;;;;;;1.33;0.70;;;12.60;84.30;;;;;;5052513;28;20033;-73
2022/03/11 11:25:16;;;;;;;3.83;1.48;;;12.70;83.70;;;;;;5060967;28;20025;-73
2022/03/11 11:27:42;;;;;;;5.00;0.75;;;12.80;82.70;;;;;;5056429;28;20037;-73
2022/03/11 11:30:09;;;;;;;3.95;0.82;;;12.70;81.60;;;;;;5049082;28;20152;-73
2022/03/11 11:32:37;;;;;;;5.13;2.80;;;12.80;81.00;;;;;;5048976;28;20032;-74
2022/03/11 11:35:25;;;;;;;5.72;1.05;;;13.00;82.20;;;;;;5047055;28;20026;-75
2022/03/11 11:37:51;;;;;;;4.78;1.48;;;13.20;80.70;;;;;;5058439;28;20025;-76
2022/03/11 11:40:34;;;;;;;3.65;1.17;;;13.20;81.00;;;;;;5052086;28;20044;-75
2022/03/11 11:43:16;;;;;;;4.90;1.85;;;13.60;80.30;;;;;;5061425;28;20027;-76
2022/03/11 11:45:42;;;;;;;5.95;1.23;;;13.80;80.10;;;;;;5047619;28;20093;-76
2022/03/11 11:48:34;;;;;;;4.75;1.38;;;13.80;79.80;;;;;;5041028;28;20409;-77
2022/03/11 11:51:02;;;;;;;5.55;1.17;;;13.80;80.40;;;;;;5046652;28;20036;-76
2022/03/11 11:53:42;;;;;;;3.15;1.60;;;14.00;80.00;;;;;;5043487;28;20029;-76
2022/03/11 11:56:27;;;;;;;2.72;1.48;;;14.00;79.50;;;;;;5047982;28;20017;-76
2022/03/11 11:58:57;;;;;;;5.65;1.23;;;14.30;78.20;;;;;;5050326;28;20044;-77
2022/03/11 12:01:44;;;;;;;7.57;1.10;;;14.40;77.60;;;;;;5050421;28;20025;-76
2022/03/11 12:04:28;;;;;;;5.35;1.65;;;14.50;76.10;;;;;;5044705;28;20085;-76
2022/03/11 12:07:00;;;;;;;8.70;1.33;;;14.60;75.60;;;;;;5051180;28;20032;-77
2022/03/11 12:09:41;;;;;;;4.90;1.20;;;14.40;74.50;;;;;;5054433;28;20048;-74
2022/03/11 12:12:32;;;;;;;7.63;1.90;;;14.10;75.30;;;;;;5049549;28;20033;-76
2022/03/11 12:14:58;;;;;;;7.45;1.70;;;14.10;76.20;;;;;;5043105;28;20515;-75
2022/03/11 12:17:37;;;;;;;5.90;1.30;;;14.20;76.00;;;;;;5051153;28;20039;-75
2022/03/11 12:20:21;;;;;;;4.25;0.77;;;14.30;76.30;;;;;;5045358;28;20025;-75
2022/03/11 12:22:57;;;;;;;4.85;1.40;;;14.30;76.10;;;;;;5045911;28;20052;-75
2022/03/11 12:25:25;;;;;;;5.82;1.25;;;14.40;75.80;;;;;;5045197;28;20021;-75
2022/03/11 12:28:17;;;;;;;3.88;0.90;;;14.80;75.40;;;;;;5045846;28;20021;-75
2022/03/11 12:30:54;;;;;;;9.23;1.50;;;14.60;73.30;;;;;;5044553;28;20059;-75
2022/03/11 12:33:23;;;;;;;4.30;1.35;;;14.20;74.40;;;;;;5047032;28;20044;-75
2022/03/11 12:35:51;;;;;;;8.35;1.42;;;13.90;75.40;;;;;;5046248;28;20492;-76
2022/03/11 12:38:20;;;;;;;6.38;1.10;;;14.20;75.20;;;;;;5044767;28;20025;-75
2022/03/11 12:40:46;;;;;;;6.35;1.50;;;14.50;75.70;;;;;;5044893;28;20052;-76
2022/03/11 12:43:14;;;;;;;8.02;1.30;;;14.70;75.90;;;;;;5045305;28;20797;-75
2022/03/11 12:45:44;;;;;;;6.57;1.20;;;14.80;74.50;;;;;;5045149;28;20075;-75